Taylorville, IL

11:25 AM CDT on May 27, 2017 (GMT -0500)
Taylorville Municipal

Weather History for KTAZ - April, 2014

Change the Weather History Date:

Thursday, April 24, 2014

  Actual Average (KSPI) Record (KSPI)
Temperature  
Mean Temperature 60 °F -  
Max Temperature 73 °F 65 °F 89 °F (1925)
Min Temperature 46 °F 44 °F 22 °F (1910)
Degree Days  
Heating Degree Days 6    
Growing Degree Days 10 (Base 50)    
Moisture  
Dew Point 40 °F    
Average Humidity 53    
Maximum Humidity 100    
Minimum Humidity 33    
Precipitation  
Precipitation 0.34 in - - ()
Sea Level Pressure  
Sea Level Pressure 29.80 in    
Wind  
Wind Speed 12 mph (SE)    
Max Wind Speed 31 mph    
Max Gust Speed 39 mph    
Visibility 10 miles    
Events Rain    
Averages and records for this station are not official NWS values.
T = Trace of Precipitation, MM = Missing Value Source: NWS Daily Summary

Daily Weather History Graph

Daily Weather History Graph

Search for Another Location

Airport or City:

Trip Planner

Search our weather history database for the weather conditions in past years. The results will help you decide how hot, cold, wet, or windy it might be!

Date:

Astronomy

Apr. 24, 2014 Rise Set
Actual Time 6:07 AM CDT 7:44 PM CDT
Civil Twilight 5:38 AM CDT 8:12 PM CDT
Nautical Twilight 5:04 AM CDT 8:47 PM CDT
Astronomical Twilight 4:28 AM CDT 9:23 PM CDT
Moon 3:17 AM CDT (4/24) 3:00 PM CDT (4/24)
Length of Visible Light 14h 33m
Length of Day
13h 36m
Waning Crescent, 24% of the Moon is Illuminated
Apr 24
Waning Crescent
Apr 29
New
May 6
First Quarter
May 14
Full
May 21
Last Quarter

Hourly Weather History & Observations

Time (CDT) Temp. Windchill Dew Point Humidity Pressure Visibility Wind Dir Wind Speed Gust Speed Precip Events Conditions
12:15 AM 51.8 °F - 33.8 °F 50% 29.99 in 10.0 mi SE 5.8 mph - N/A   Clear
12:35 AM 51.8 °F - 33.8 °F 50% 29.97 in 10.0 mi SE 6.9 mph - N/A   Clear
12:55 AM 51.8 °F - 33.8 °F 50% 29.97 in 10.0 mi SE 6.9 mph - N/A   Clear
1:15 AM 51.8 °F - 33.8 °F 50% 29.96 in 10.0 mi SE 9.2 mph - N/A   Clear
1:35 AM 51.8 °F - 33.8 °F 50% 29.95 in 10.0 mi SE 9.2 mph - N/A   Clear
1:55 AM 51.8 °F - 33.8 °F 50% 29.94 in 10.0 mi SE 11.5 mph - N/A   Clear
2:15 AM 51.8 °F - 32.0 °F 47% 29.93 in 10.0 mi ESE 11.5 mph - N/A   Clear
2:35 AM 51.8 °F - 32.0 °F 47% 29.92 in 10.0 mi SE 12.7 mph 18.4 mph N/A   Clear
2:55 AM 51.8 °F - 33.8 °F 50% 29.92 in 10.0 mi SE 12.7 mph - N/A   Clear
3:15 AM 51.8 °F - 33.8 °F 50% 29.92 in 10.0 mi SE 10.4 mph - N/A   Clear
3:35 AM 50.0 °F - 33.8 °F 54% 29.93 in 10.0 mi SE 9.2 mph - N/A   Clear
3:55 AM 50.0 °F - 33.8 °F 54% 29.93 in 10.0 mi ESE 8.1 mph - N/A   Clear
4:15 AM 50.0 °F - 33.8 °F 54% 29.94 in 10.0 mi ESE 8.1 mph - N/A   Clear
4:35 AM 50.0 °F - 33.8 °F 54% 29.94 in 10.0 mi ESE 6.9 mph - N/A   Clear
4:55 AM 50.0 °F - 33.8 °F 54% 29.95 in 10.0 mi SE 5.8 mph - N/A   Clear
5:15 AM 50.0 °F - 33.8 °F 54% 29.95 in 10.0 mi ESE 8.1 mph - N/A   Clear
5:35 AM 48.2 °F - 33.8 °F 58% 29.95 in 10.0 mi ESE 8.1 mph - N/A   Clear
5:55 AM 48.2 °F - 33.8 °F 58% 29.95 in 10.0 mi ESE 8.1 mph - N/A   Scattered Clouds
6:15 AM 46.4 °F 41.5 °F 33.8 °F 62% 29.94 in 10.0 mi ESE 10.4 mph - N/A   Scattered Clouds
6:35 AM 48.2 °F - 33.8 °F 58% 29.94 in 10.0 mi ESE 11.5 mph - N/A   Clear
6:55 AM 50.0 °F - 33.8 °F 54% 29.95 in 10.0 mi SE 11.5 mph - N/A   Clear
7:15 AM 50.0 °F - 33.8 °F 54% 29.95 in 10.0 mi SE 13.8 mph 19.6 mph N/A   Clear
7:35 AM 51.8 °F - 33.8 °F 50% 29.93 in 10.0 mi SE 17.3 mph 21.9 mph N/A   Clear
7:55 AM 51.8 °F - 33.8 °F 50% 29.92 in 10.0 mi SE 18.4 mph 21.9 mph N/A   Clear
8:15 AM 53.6 °F - 33.8 °F 47% 29.92 in 10.0 mi SE 19.6 mph 23.0 mph N/A   Clear
8:35 AM 53.6 °F - 35.6 °F 51% 29.92 in 10.0 mi SE 17.3 mph 23.0 mph N/A   Clear
8:55 AM 55.4 °F - 33.8 °F 44% 29.90 in 10.0 mi SE 19.6 mph 26.5 mph N/A   Clear
9:15 AM 55.4 °F - 35.6 °F 47% 29.89 in 10.0 mi SE 19.6 mph 31.1 mph N/A   Clear
9:35 AM 57.2 °F - 35.6 °F 44% 29.87 in 10.0 mi SE 18.4 mph 27.6 mph N/A   Clear
9:55 AM 59.0 °F - 35.6 °F 42% 29.87 in 10.0 mi SE 18.4 mph 27.6 mph N/A   Clear
10:15 AM 60.8 °F - 35.6 °F 39% 29.87 in 10.0 mi SE 20.7 mph 25.3 mph N/A   Clear
10:35 AM 60.8 °F - 35.6 °F 39% 29.86 in 10.0 mi SE 19.6 mph 28.8 mph N/A   Clear
10:55 AM 60.8 °F - 35.6 °F 39% 29.87 in 10.0 mi SE 15.0 mph 25.3 mph N/A   Clear
11:15 AM 62.6 °F - 35.6 °F 37% 29.86 in 10.0 mi SE 19.6 mph - N/A   Clear
11:35 AM 66.2 °F - 37.4 °F 35% 29.85 in 10.0 mi SSE 16.1 mph 25.3 mph N/A   Clear
11:55 AM 66.2 °F - 37.4 °F 35% 29.84 in 10.0 mi SSE 16.1 mph 25.3 mph N/A   Clear
12:15 PM 68.0 °F - 37.4 °F 33% 29.83 in 10.0 mi SSE 18.4 mph 21.9 mph N/A   Clear
12:35 PM 69.8 °F - 39.2 °F 33% 29.82 in 10.0 mi SSE 16.1 mph 21.9 mph N/A   Clear
12:55 PM 69.8 °F - 41.0 °F 35% 29.81 in 10.0 mi SE 18.4 mph 21.9 mph N/A   Scattered Clouds
1:15 PM 69.8 °F - 41.0 °F 35% 29.80 in 10.0 mi South 19.6 mph 26.5 mph N/A   Mostly Cloudy
1:35 PM 71.6 °F - 41.0 °F 33% 29.79 in 10.0 mi SSE 17.3 mph 24.2 mph N/A   Mostly Cloudy
1:55 PM 71.6 °F - 41.0 °F 33% 29.75 in 10.0 mi SSE 24.2 mph 28.8 mph N/A   Scattered Clouds
2:15 PM 73.4 °F - 42.8 °F 33% 29.76 in 10.0 mi South 19.6 mph 25.3 mph N/A   Clear
2:35 PM 71.6 °F - 42.8 °F 35% 29.75 in 10.0 mi SSE 18.4 mph 31.1 mph N/A   Clear
2:55 PM 71.6 °F - 42.8 °F 35% 29.73 in 10.0 mi South 17.3 mph 25.3 mph N/A   Scattered Clouds
3:15 PM 71.6 °F - 42.8 °F 35% 29.71 in 10.0 mi South 17.3 mph 26.5 mph N/A   Mostly Cloudy
3:35 PM 73.4 °F - 42.8 °F 33% 29.69 in 10.0 mi SSE 20.7 mph 26.5 mph N/A   Mostly Cloudy
3:55 PM 71.6 °F - 42.8 °F 35% 29.67 in 10.0 mi SSE 18.4 mph 28.8 mph N/A   Mostly Cloudy
4:15 PM 71.6 °F - 42.8 °F 35% 29.66 in 10.0 mi SE 17.3 mph 25.3 mph N/A   Overcast
4:35 PM 71.6 °F - 42.8 °F 35% 29.65 in 10.0 mi SSE 20.7 mph 26.5 mph N/A   Overcast
4:55 PM 71.6 °F - 42.8 °F 35% 29.65 in 10.0 mi SSE 13.8 mph 21.9 mph N/A   Overcast
5:15 PM 71.6 °F - 42.8 °F 35% 29.64 in 10.0 mi SSE 15.0 mph 20.7 mph N/A   Overcast
5:35 PM 71.6 °F - 44.6 °F 38% 29.64 in 10.0 mi SSE 13.8 mph 17.3 mph N/A   Mostly Cloudy
5:55 PM 71.6 °F - 42.8 °F 35% 29.64 in 10.0 mi SSE 17.3 mph 23.0 mph N/A   Overcast
6:15 PM 71.6 °F - 44.6 °F 38% 29.63 in 10.0 mi SSE 13.8 mph 18.4 mph N/A   Overcast
6:35 PM 69.8 °F - 44.6 °F 40% 29.62 in 10.0 mi SSE 13.8 mph - N/A   Overcast
6:55 PM 69.8 °F - 44.6 °F 40% 29.60 in 10.0 mi SSE 13.8 mph - N/A   Mostly Cloudy
7:15 PM 69.8 °F - 44.6 °F 40% 29.60 in 10.0 mi SSE 12.7 mph - N/A   Mostly Cloudy
7:35 PM 69.8 °F - 46.4 °F 43% 29.65 in 10.0 mi West 31.1 mph 39.1 mph N/A   Overcast
7:55 PM 59.0 °F - 53.6 °F 82% 29.67 in 7.0 mi West 19.6 mph 28.8 mph 0.07 in Rain Rain
8:15 PM 57.2 °F - 53.6 °F 88% 29.67 in 7.0 mi West 9.2 mph 16.1 mph 0.02 in Rain Light Rain
8:35 PM 57.2 °F - 53.6 °F 88% 29.67 in 7.0 mi WNW 8.1 mph - 0.03 in Rain Rain
8:55 PM 57.2 °F - 53.6 °F 88% 29.67 in 10.0 mi Calm Calm - 0.06 in Rain Light Rain
9:15 PM 55.4 °F - 55.4 °F 100% 29.67 in 10.0 mi Calm Calm - 0.01 in Rain Light Rain
9:35 PM 55.4 °F - 53.6 °F 94% 29.67 in 7.0 mi SE 5.8 mph - 0.05 in Rain Rain
9:55 PM 55.4 °F - 53.6 °F 94% 29.67 in 7.0 mi SE 8.1 mph - 0.12 in Rain Rain
10:15 PM 55.4 °F - 53.6 °F 94% 29.66 in 7.0 mi ESE 3.5 mph - 0.04 in Rain Rain
10:35 PM 55.4 °F - 53.6 °F 94% 29.64 in 10.0 mi SE 9.2 mph - 0.08 in Rain Light Rain
10:55 PM 55.4 °F - 53.6 °F 94% 29.64 in 10.0 mi SSE 6.9 mph - 0.09 in Rain Rain
11:15 PM 55.4 °F - 53.6 °F 94% 29.64 in 10.0 mi SSE 6.9 mph - N/A   Overcast
11:35 PM 53.6 °F - 53.6 °F 100% 29.64 in 10.0 mi South 4.6 mph - N/A   Overcast
11:55 PM 53.6 °F - 53.6 °F 100% 29.64 in 10.0 mi South 5.8 mph - N/A   Overcast